sensor_id;sensor_type;location;lat;lon;timestamp;temperature;humidity
5210;DHT22;2624;48.048;11.706;2024-03-08T00:03:48;1.50;99.90
5210;DHT22;2624;48.048;11.706;2024-03-08T00:08:49;1.50;99.90
5210;DHT22;2624;48.048;11.706;2024-03-08T00:13:53;0.90;99.90
5210;DHT22;2624;48.048;11.706;2024-03-08T00:18:55;1.30;99.90
5210;DHT22;2624;48.048;11.706;2024-03-08T00:23:56;1.10;99.90
5210;DHT22;2624;48.048;11.706;2024-03-08T00:29:00;1.40;99.90
5210;DHT22;2624;48.048;11.706;2024-03-08T00:34:02;1.30;99.90
5210;DHT22;2624;48.048;11.706;2024-03-08T00:39:03;1.00;99.90
5210;DHT22;2624;48.048;11.706;2024-03-08T00:44:08;1.00;99.90
5210;DHT22;2624;48.048;11.706;2024-03-08T00:49:10;1.40;99.90
5210;DHT22;2624;48.048;11.706;2024-03-08T00:54:13;1.70;99.90
5210;DHT22;2624;48.048;11.706;2024-03-08T00:59:18;1.90;99.90
5210;DHT22;2624;48.048;11.706;2024-03-08T01:04:20;1.90;99.90
5210;DHT22;2624;48.048;11.706;2024-03-08T01:09:23;1.00;99.90
5210;DHT22;2624;48.048;11.706;2024-03-08T01:14:28;0.50;99.90
5210;DHT22;2624;48.048;11.706;2024-03-08T01:19:31;0.30;99.90
5210;DHT22;2624;48.048;11.706;2024-03-08T01:24:33;0.80;99.90
5210;DHT22;2624;48.048;11.706;2024-03-08T01:29:37;0.10;99.90
5210;DHT22;2624;48.048;11.706;2024-03-08T01:34:39;0.20;99.90
5210;DHT22;2624;48.048;11.706;2024-03-08T01:39:43;0.60;99.90
5210;DHT22;2624;48.048;11.706;2024-03-08T01:44:46;1.00;99.90
5210;DHT22;2624;48.048;11.706;2024-03-08T01:49:48;1.10;99.90
5210;DHT22;2624;48.048;11.706;2024-03-08T01:54:50;1.10;99.90
5210;DHT22;2624;48.048;11.706;2024-03-08T01:59:53;1.40;99.90
5210;DHT22;2624;48.048;11.706;2024-03-08T02:04:57;0.80;99.90
5210;DHT22;2624;48.048;11.706;2024-03-08T02:09:59;0.00;99.90
5210;DHT22;2624;48.048;11.706;2024-03-08T02:15:02;0.00;99.90
5210;DHT22;2624;48.048;11.706;2024-03-08T02:20:07;-0.20;99.90
5210;DHT22;2624;48.048;11.706;2024-03-08T02:25:12;-0.10;99.90
5210;DHT22;2624;48.048;11.706;2024-03-08T02:30:14;0.00;99.90
5210;DHT22;2624;48.048;11.706;2024-03-08T02:35:18;-0.30;99.90
5210;DHT22;2624;48.048;11.706;2024-03-08T02:40:21;0.00;99.90
5210;DHT22;2624;48.048;11.706;2024-03-08T02:45:23;0.40;99.90
5210;DHT22;2624;48.048;11.706;2024-03-08T02:50:25;-0.10;99.90
5210;DHT22;2624;48.048;11.706;2024-03-08T02:55:28;-0.20;99.90
5210;DHT22;2624;48.048;11.706;2024-03-08T03:00:30;-0.20;99.90
5210;DHT22;2624;48.048;11.706;2024-03-08T03:05:33;0.00;99.90
5210;DHT22;2624;48.048;11.706;2024-03-08T03:10:36;0.40;99.90
5210;DHT22;2624;48.048;11.706;2024-03-08T03:15:38;0.40;99.90
5210;DHT22;2624;48.048;11.706;2024-03-08T03:20:42;0.70;99.90
5210;DHT22;2624;48.048;11.706;2024-03-08T03:25:46;0.60;99.90
5210;DHT22;2624;48.048;11.706;2024-03-08T03:30:48;0.70;99.90
5210;DHT22;2624;48.048;11.706;2024-03-08T03:35:49;0.80;99.90
5210;DHT22;2624;48.048;11.706;2024-03-08T03:40:53;0.30;99.90
5210;DHT22;2624;48.048;11.706;2024-03-08T03:45:58;0.40;99.90
5210;DHT22;2624;48.048;11.706;2024-03-08T03:50:59;0.70;99.90
5210;DHT22;2624;48.048;11.706;2024-03-08T03:56:03;0.70;99.90
5210;DHT22;2624;48.048;11.706;2024-03-08T04:01:07;0.90;99.90
5210;DHT22;2624;48.048;11.706;2024-03-08T04:06:10;1.00;99.90
5210;DHT22;2624;48.048;11.706;2024-03-08T04:11:13;0.90;99.90
5210;DHT22;2624;48.048;11.706;2024-03-08T04:16:16;0.90;99.90
5210;DHT22;2624;48.048;11.706;2024-03-08T04:21:19;1.00;99.90
5210;DHT22;2624;48.048;11.706;2024-03-08T04:26:22;0.90;99.90
5210;DHT22;2624;48.048;11.706;2024-03-08T04:31:24;0.50;99.90
5210;DHT22;2624;48.048;11.706;2024-03-08T04:36:27;0.60;99.90
5210;DHT22;2624;48.048;11.706;2024-03-08T04:41:30;0.30;99.90
5210;DHT22;2624;48.048;11.706;2024-03-08T04:46:34;0.20;99.90
5210;DHT22;2624;48.048;11.706;2024-03-08T04:51:36;0.30;99.90
5210;DHT22;2624;48.048;11.706;2024-03-08T04:56:40;0.00;99.90
5210;DHT22;2624;48.048;11.706;2024-03-08T05:01:42;0.00;99.90
5210;DHT22;2624;48.048;11.706;2024-03-08T05:06:44;-0.30;99.90
5210;DHT22;2624;48.048;11.706;2024-03-08T05:11:47;-0.50;99.90
5210;DHT22;2624;48.048;11.706;2024-03-08T05:16:51;-0.30;99.90
5210;DHT22;2624;48.048;11.706;2024-03-08T05:21:52;-0.40;99.90
5210;DHT22;2624;48.048;11.706;2024-03-08T05:26:56;-0.10;99.90
5210;DHT22;2624;48.048;11.706;2024-03-08T05:31:57;0.00;99.90
5210;DHT22;2624;48.048;11.706;2024-03-08T05:37:00;-0.20;99.90
5210;DHT22;2624;48.048;11.706;2024-03-08T05:47:06;-0.30;99.90
5210;DHT22;2624;48.048;11.706;2024-03-08T05:52:08;-0.10;99.90
5210;DHT22;2624;48.048;11.706;2024-03-08T05:57:11;0.00;99.90
5210;DHT22;2624;48.048;11.706;2024-03-08T06:02:14;-0.30;99.90
5210;DHT22;2624;48.048;11.706;2024-03-08T06:07:20;-0.50;99.90
5210;DHT22;2624;48.048;11.706;2024-03-08T06:12:23;-0.30;99.90
5210;DHT22;2624;48.048;11.706;2024-03-08T06:17:29;-0.30;99.90
5210;DHT22;2624;48.048;11.706;2024-03-08T06:22:31;-0.60;99.90
5210;DHT22;2624;48.048;11.706;2024-03-08T06:27:34;-0.60;99.90
5210;DHT22;2624;48.048;11.706;2024-03-08T06:32:36;-0.60;99.90
5210;DHT22;2624;48.048;11.706;2024-03-08T06:37:38;-0.40;99.90
5210;DHT22;2624;48.048;11.706;2024-03-08T06:42:41;-0.50;99.90
5210;DHT22;2624;48.048;11.706;2024-03-08T06:47:43;-0.50;99.90
5210;DHT22;2624;48.048;11.706;2024-03-08T06:52:46;-0.50;99.90
5210;DHT22;2624;48.048;11.706;2024-03-08T06:57:52;-0.60;99.90
5210;DHT22;2624;48.048;11.706;2024-03-08T07:02:54;-0.60;99.90
5210;DHT22;2624;48.048;11.706;2024-03-08T07:07:58;-0.60;99.90
5210;DHT22;2624;48.048;11.706;2024-03-08T07:13:01;-0.30;99.90
5210;DHT22;2624;48.048;11.706;2024-03-08T07:18:03;-0.30;99.90
5210;DHT22;2624;48.048;11.706;2024-03-08T07:23:06;0.00;99.90
5210;DHT22;2624;48.048;11.706;2024-03-08T07:28:10;-0.40;99.90
5210;DHT22;2624;48.048;11.706;2024-03-08T07:33:13;-0.20;99.90
5210;DHT22;2624;48.048;11.706;2024-03-08T07:38:15;0.10;99.90
5210;DHT22;2624;48.048;11.706;2024-03-08T07:43:18;0.10;99.90
5210;DHT22;2624;48.048;11.706;2024-03-08T07:48:20;0.10;99.90
5210;DHT22;2624;48.048;11.706;2024-03-08T07:53:22;0.20;99.90
5210;DHT22;2624;48.048;11.706;2024-03-08T07:58:26;0.40;99.90
5210;DHT22;2624;48.048;11.706;2024-03-08T08:03:28;0.70;99.90
5210;DHT22;2624;48.048;11.706;2024-03-08T08:08:30;0.30;99.90
5210;DHT22;2624;48.048;11.706;2024-03-08T08:13:34;0.70;99.90
5210;DHT22;2624;48.048;11.706;2024-03-08T08:18:37;0.80;99.90
5210;DHT22;2624;48.048;11.706;2024-03-08T08:23:39;1.00;99.90
5210;DHT22;2624;48.048;11.706;2024-03-08T08:28:42;1.00;99.90
5210;DHT22;2624;48.048;11.706;2024-03-08T08:33:46;0.90;99.90
5210;DHT22;2624;48.048;11.706;2024-03-08T08:38:49;1.20;99.90
5210;DHT22;2624;48.048;11.706;2024-03-08T08:43:52;1.60;99.90
5210;DHT22;2624;48.048;11.706;2024-03-08T08:48:55;1.80;99.90
5210;DHT22;2624;48.048;11.706;2024-03-08T08:53:57;1.90;99.90
5210;DHT22;2624;48.048;11.706;2024-03-08T08:59:00;2.10;99.90
5210;DHT22;2624;48.048;11.706;2024-03-08T09:04:02;2.30;99.90
5210;DHT22;2624;48.048;11.706;2024-03-08T09:09:04;2.60;99.90
5210;DHT22;2624;48.048;11.706;2024-03-08T09:14:07;2.80;99.90
5210;DHT22;2624;48.048;11.706;2024-03-08T09:19:09;2.80;99.90
5210;DHT22;2624;48.048;11.706;2024-03-08T09:24:12;3.10;99.90
5210;DHT22;2624;48.048;11.706;2024-03-08T09:29:15;3.10;99.90
5210;DHT22;2624;48.048;11.706;2024-03-08T09:34:17;3.20;99.90
5210;DHT22;2624;48.048;11.706;2024-03-08T09:39:19;3.40;99.90
5210;DHT22;2624;48.048;11.706;2024-03-08T09:44:23;3.60;99.90
5210;DHT22;2624;48.048;11.706;2024-03-08T09:49:25;3.50;99.90
5210;DHT22;2624;48.048;11.706;2024-03-08T09:54:27;4.20;99.90
5210;DHT22;2624;48.048;11.706;2024-03-08T09:59:31;4.30;99.90
5210;DHT22;2624;48.048;11.706;2024-03-08T10:04:48;4.60;99.90
5210;DHT22;2624;48.048;11.706;2024-03-08T10:09:52;4.60;99.90
5210;DHT22;2624;48.048;11.706;2024-03-08T10:14:58;4.90;99.90
5210;DHT22;2624;48.048;11.706;2024-03-08T10:20:00;5.30;99.90
5210;DHT22;2624;48.048;11.706;2024-03-08T10:25:05;5.50;99.90
5210;DHT22;2624;48.048;11.706;2024-03-08T10:30:12;5.60;99.90
5210;DHT22;2624;48.048;11.706;2024-03-08T10:35:16;5.90;99.90
5210;DHT22;2624;48.048;11.706;2024-03-08T10:40:19;6.20;99.90
5210;DHT22;2624;48.048;11.706;2024-03-08T10:45:35;6.20;99.90
5210;DHT22;2624;48.048;11.706;2024-03-08T10:50:38;6.30;99.90
5210;DHT22;2624;48.048;11.706;2024-03-08T10:55:40;6.70;99.90
5210;DHT22;2624;48.048;11.706;2024-03-08T11:00:45;6.70;99.90
5210;DHT22;2624;48.048;11.706;2024-03-08T11:05:50;7.00;99.90
5210;DHT22;2624;48.048;11.706;2024-03-08T11:10:53;7.40;99.90
5210;DHT22;2624;48.048;11.706;2024-03-08T11:15:57;7.10;99.90
5210;DHT22;2624;48.048;11.706;2024-03-08T11:21:02;7.50;99.90
5210;DHT22;2624;48.048;11.706;2024-03-08T11:26:17;7.20;99.90
5210;DHT22;2624;48.048;11.706;2024-03-08T11:31:25;7.90;99.90
5210;DHT22;2624;48.048;11.706;2024-03-08T11:36:27;8.10;99.90
5210;DHT22;2624;48.048;11.706;2024-03-08T11:41:31;8.00;99.90
5210;DHT22;2624;48.048;11.706;2024-03-08T11:46:34;8.00;99.90
5210;DHT22;2624;48.048;11.706;2024-03-08T11:51:36;8.60;99.90
5210;DHT22;2624;48.048;11.706;2024-03-08T11:56:38;8.40;99.90
5210;DHT22;2624;48.048;11.706;2024-03-08T12:01:43;8.50;99.90
5210;DHT22;2624;48.048;11.706;2024-03-08T12:06:46;8.30;99.90
5210;DHT22;2624;48.048;11.706;2024-03-08T12:11:48;8.90;99.90
5210;DHT22;2624;48.048;11.706;2024-03-08T12:16:52;9.10;99.90
5210;DHT22;2624;48.048;11.706;2024-03-08T12:21:54;9.10;99.90
5210;DHT22;2624;48.048;11.706;2024-03-08T12:26:56;9.10;99.90
5210;DHT22;2624;48.048;11.706;2024-03-08T12:32:00;9.00;99.90
5210;DHT22;2624;48.048;11.706;2024-03-08T12:37:02;9.20;99.90
5210;DHT22;2624;48.048;11.706;2024-03-08T12:42:07;9.20;99.90
5210;DHT22;2624;48.048;11.706;2024-03-08T12:47:11;9.20;99.90
5210;DHT22;2624;48.048;11.706;2024-03-08T12:52:13;8.80;99.90
5210;DHT22;2624;48.048;11.706;2024-03-08T12:57:19;9.30;99.90
5210;DHT22;2624;48.048;11.706;2024-03-08T13:02:22;9.40;99.90
5210;DHT22;2624;48.048;11.706;2024-03-08T13:07:24;9.50;99.90
5210;DHT22;2624;48.048;11.706;2024-03-08T13:12:27;9.70;99.90
5210;DHT22;2624;48.048;11.706;2024-03-08T13:17:30;9.70;99.90
5210;DHT22;2624;48.048;11.706;2024-03-08T13:22:32;9.50;99.90
5210;DHT22;2624;48.048;11.706;2024-03-08T13:27:34;10.20;99.90
5210;DHT22;2624;48.048;11.706;2024-03-08T13:32:39;10.30;99.90
5210;DHT22;2624;48.048;11.706;2024-03-08T13:37:43;10.30;99.90
5210;DHT22;2624;48.048;11.706;2024-03-08T13:42:45;9.90;99.90
5210;DHT22;2624;48.048;11.706;2024-03-08T13:47:50;9.90;99.90
5210;DHT22;2624;48.048;11.706;2024-03-08T13:52:53;9.60;99.90
5210;DHT22;2624;48.048;11.706;2024-03-08T13:57:55;9.60;99.90
5210;DHT22;2624;48.048;11.706;2024-03-08T14:02:59;9.80;99.90
5210;DHT22;2624;48.048;11.706;2024-03-08T14:08:01;10.00;99.90
5210;DHT22;2624;48.048;11.706;2024-03-08T14:13:04;10.20;99.90
5210;DHT22;2624;48.048;11.706;2024-03-08T14:18:08;10.30;99.90
5210;DHT22;2624;48.048;11.706;2024-03-08T14:23:11;10.20;99.90
5210;DHT22;2624;48.048;11.706;2024-03-08T14:28:13;10.20;99.90
5210;DHT22;2624;48.048;11.706;2024-03-08T14:33:16;10.00;99.90
5210;DHT22;2624;48.048;11.706;2024-03-08T14:38:18;9.80;99.90
5210;DHT22;2624;48.048;11.706;2024-03-08T14:43:21;9.80;99.90
5210;DHT22;2624;48.048;11.706;2024-03-08T14:48:24;9.80;99.90
5210;DHT22;2624;48.048;11.706;2024-03-08T14:53:26;9.70;99.90
5210;DHT22;2624;48.048;11.706;2024-03-08T14:58:28;9.70;99.90
5210;DHT22;2624;48.048;11.706;2024-03-08T15:03:32;9.70;99.90
5210;DHT22;2624;48.048;11.706;2024-03-08T15:08:34;9.70;99.90
5210;DHT22;2624;48.048;11.706;2024-03-08T15:13:37;9.50;99.90
5210;DHT22;2624;48.048;11.706;2024-03-08T15:18:44;9.30;99.90
5210;DHT22;2624;48.048;11.706;2024-03-08T15:23:47;9.20;99.90
5210;DHT22;2624;48.048;11.706;2024-03-08T15:28:52;9.10;99.90
5210;DHT22;2624;48.048;11.706;2024-03-08T15:33:57;9.10;99.90
5210;DHT22;2624;48.048;11.706;2024-03-08T15:39:01;9.00;99.90
5210;DHT22;2624;48.048;11.706;2024-03-08T15:44:03;8.90;99.90
5210;DHT22;2624;48.048;11.706;2024-03-08T15:49:06;8.90;99.90
5210;DHT22;2624;48.048;11.706;2024-03-08T15:54:09;8.80;99.90
5210;DHT22;2624;48.048;11.706;2024-03-08T15:59:11;8.70;99.90
5210;DHT22;2624;48.048;11.706;2024-03-08T16:04:14;8.60;99.90
5210;DHT22;2624;48.048;11.706;2024-03-08T16:09:16;8.60;99.90
5210;DHT22;2624;48.048;11.706;2024-03-08T16:14:18;8.70;99.90
5210;DHT22;2624;48.048;11.706;2024-03-08T16:19:22;8.50;99.90
5210;DHT22;2624;48.048;11.706;2024-03-08T16:24:25;8.40;99.90
5210;DHT22;2624;48.048;11.706;2024-03-08T16:29:27;8.20;99.90
5210;DHT22;2624;48.048;11.706;2024-03-08T16:34:31;8.30;99.90
5210;DHT22;2624;48.048;11.706;2024-03-08T16:39:35;8.30;99.90
5210;DHT22;2624;48.048;11.706;2024-03-08T16:44:37;8.00;99.90
5210;DHT22;2624;48.048;11.706;2024-03-08T16:49:42;8.00;99.90
5210;DHT22;2624;48.048;11.706;2024-03-08T16:54:44;8.00;99.90
5210;DHT22;2624;48.048;11.706;2024-03-08T16:59:46;7.90;99.90
5210;DHT22;2624;48.048;11.706;2024-03-08T17:04:49;7.60;99.90
5210;DHT22;2624;48.048;11.706;2024-03-08T17:09:51;7.60;99.90
5210;DHT22;2624;48.048;11.706;2024-03-08T17:14:53;7.70;99.90
5210;DHT22;2624;48.048;11.706;2024-03-08T17:19:56;7.50;99.90
5210;DHT22;2624;48.048;11.706;2024-03-08T17:24:58;7.50;99.90
5210;DHT22;2624;48.048;11.706;2024-03-08T17:30:00;7.70;99.90
5210;DHT22;2624;48.048;11.706;2024-03-08T17:35:11;7.60;99.90
5210;DHT22;2624;48.048;11.706;2024-03-08T17:40:14;7.40;99.90
5210;DHT22;2624;48.048;11.706;2024-03-08T17:45:18;7.40;99.90
5210;DHT22;2624;48.048;11.706;2024-03-08T17:50:23;7.40;99.90
5210;DHT22;2624;48.048;11.706;2024-03-08T17:55:25;7.40;99.90
5210;DHT22;2624;48.048;11.706;2024-03-08T18:00:30;7.10;99.90
5210;DHT22;2624;48.048;11.706;2024-03-08T18:05:34;6.90;99.90
5210;DHT22;2624;48.048;11.706;2024-03-08T18:10:37;7.10;99.90
5210;DHT22;2624;48.048;11.706;2024-03-08T18:15:41;6.90;99.90
5210;DHT22;2624;48.048;11.706;2024-03-08T18:20:44;6.80;99.90
5210;DHT22;2624;48.048;11.706;2024-03-08T18:25:47;6.80;99.90
5210;DHT22;2624;48.048;11.706;2024-03-08T18:30:49;6.80;99.90
5210;DHT22;2624;48.048;11.706;2024-03-08T18:35:55;6.60;99.90
5210;DHT22;2624;48.048;11.706;2024-03-08T18:40:59;6.70;99.90
5210;DHT22;2624;48.048;11.706;2024-03-08T18:46:01;6.60;99.90
5210;DHT22;2624;48.048;11.706;2024-03-08T18:51:06;6.50;99.90
5210;DHT22;2624;48.048;11.706;2024-03-08T18:56:08;6.50;99.90
5210;DHT22;2624;48.048;11.706;2024-03-08T19:01:10;6.60;99.90
5210;DHT22;2624;48.048;11.706;2024-03-08T19:06:13;6.50;99.90
5210;DHT22;2624;48.048;11.706;2024-03-08T19:11:18;6.30;99.90
5210;DHT22;2624;48.048;11.706;2024-03-08T19:16:20;5.90;99.90
5210;DHT22;2624;48.048;11.706;2024-03-08T19:21:23;5.80;99.90
5210;DHT22;2624;48.048;11.706;2024-03-08T19:26:25;6.20;99.90
5210;DHT22;2624;48.048;11.706;2024-03-08T19:31:27;6.10;99.90
5210;DHT22;2624;48.048;11.706;2024-03-08T19:36:31;5.80;99.90
5210;DHT22;2624;48.048;11.706;2024-03-08T19:41:32;5.50;99.90
5210;DHT22;2624;48.048;11.706;2024-03-08T19:46:34;5.50;99.90
5210;DHT22;2624;48.048;11.706;2024-03-08T19:51:42;5.50;99.90
5210;DHT22;2624;48.048;11.706;2024-03-08T19:56:46;5.40;99.90
5210;DHT22;2624;48.048;11.706;2024-03-08T20:01:49;5.00;99.90
5210;DHT22;2624;48.048;11.706;2024-03-08T20:06:53;5.50;99.90
5210;DHT22;2624;48.048;11.706;2024-03-08T20:11:55;5.40;99.90
5210;DHT22;2624;48.048;11.706;2024-03-08T20:16:57;5.20;99.90
5210;DHT22;2624;48.048;11.706;2024-03-08T20:22:00;4.70;99.90
5210;DHT22;2624;48.048;11.706;2024-03-08T20:27:02;5.20;99.90
5210;DHT22;2624;48.048;11.706;2024-03-08T20:32:05;5.40;99.90
5210;DHT22;2624;48.048;11.706;2024-03-08T20:37:09;5.10;99.90
5210;DHT22;2624;48.048;11.706;2024-03-08T20:42:11;5.20;99.90
5210;DHT22;2624;48.048;11.706;2024-03-08T20:47:13;5.30;99.90
5210;DHT22;2624;48.048;11.706;2024-03-08T20:52:18;5.10;99.90
5210;DHT22;2624;48.048;11.706;2024-03-08T20:57:20;5.30;99.90
5210;DHT22;2624;48.048;11.706;2024-03-08T21:02:21;5.30;99.90
5210;DHT22;2624;48.048;11.706;2024-03-08T21:07:25;5.00;99.90
5210;DHT22;2624;48.048;11.706;2024-03-08T21:12:27;4.40;99.90
5210;DHT22;2624;48.048;11.706;2024-03-08T21:17:29;4.60;99.90
5210;DHT22;2624;48.048;11.706;2024-03-08T21:22:32;4.80;99.90
5210;DHT22;2624;48.048;11.706;2024-03-08T21:27:34;4.60;99.90
5210;DHT22;2624;48.048;11.706;2024-03-08T21:32:36;4.30;99.90
5210;DHT22;2624;48.048;11.706;2024-03-08T21:37:39;4.70;99.90
5210;DHT22;2624;48.048;11.706;2024-03-08T21:42:41;5.10;99.90
5210;DHT22;2624;48.048;11.706;2024-03-08T21:47:44;5.10;99.90
5210;DHT22;2624;48.048;11.706;2024-03-08T21:52:48;4.70;99.90
5210;DHT22;2624;48.048;11.706;2024-03-08T21:57:50;5.00;99.90
5210;DHT22;2624;48.048;11.706;2024-03-08T22:02:52;4.50;99.90
5210;DHT22;2624;48.048;11.706;2024-03-08T22:07:56;4.90;99.90
5210;DHT22;2624;48.048;11.706;2024-03-08T22:12:58;4.90;99.90
5210;DHT22;2624;48.048;11.706;2024-03-08T22:18:00;4.90;99.90
5210;DHT22;2624;48.048;11.706;2024-03-08T22:23:03;4.90;99.90
5210;DHT22;2624;48.048;11.706;2024-03-08T22:28:06;4.60;99.90
5210;DHT22;2624;48.048;11.706;2024-03-08T22:33:08;3.60;99.90
5210;DHT22;2624;48.048;11.706;2024-03-08T22:38:12;4.40;99.90
5210;DHT22;2624;48.048;11.706;2024-03-08T22:43:14;4.50;99.90
5210;DHT22;2624;48.048;11.706;2024-03-08T22:48:17;4.50;99.90
5210;DHT22;2624;48.048;11.706;2024-03-08T22:53:20;4.30;99.90
5210;DHT22;2624;48.048;11.706;2024-03-08T22:58:22;4.30;99.90
5210;DHT22;2624;48.048;11.706;2024-03-08T23:03:24;4.30;99.90
5210;DHT22;2624;48.048;11.706;2024-03-08T23:08:27;4.50;99.90
5210;DHT22;2624;48.048;11.706;2024-03-08T23:13:30;4.40;99.90
5210;DHT22;2624;48.048;11.706;2024-03-08T23:18:34;3.80;99.90
5210;DHT22;2624;48.048;11.706;2024-03-08T23:23:38;3.20;99.90
5210;DHT22;2624;48.048;11.706;2024-03-08T23:28:41;3.60;99.90
5210;DHT22;2624;48.048;11.706;2024-03-08T23:33:45;3.50;99.90
5210;DHT22;2624;48.048;11.706;2024-03-08T23:38:50;4.00;99.90
5210;DHT22;2624;48.048;11.706;2024-03-08T23:43:52;3.50;99.90
5210;DHT22;2624;48.048;11.706;2024-03-08T23:48:54;3.80;99.90
5210;DHT22;2624;48.048;11.706;2024-03-08T23:53:57;3.80;99.90
5210;DHT22;2624;48.048;11.706;2024-03-08T23:58:59;3.60;99.90
